createdAt,value
2018-07-23T00:01:47.467Z,84.80
2018-07-23T00:04:15.526Z,84.60
2018-07-23T00:06:43.560Z,84.70
2018-07-23T00:09:11.589Z,84.50
2018-07-23T00:11:39.657Z,84.10
2018-07-23T00:14:07.733Z,83.70
2018-07-23T00:16:35.797Z,84.00
2018-07-23T00:19:03.858Z,84.40
2018-07-23T00:21:31.897Z,84.80
2018-07-23T00:24:00.000Z,85.20
2018-07-23T00:26:28.036Z,85.80
2018-07-23T00:28:56.094Z,86.30
2018-07-23T00:31:24.233Z,86.70
2018-07-23T00:33:52.268Z,86.90
2018-07-23T00:36:20.352Z,87.10
2018-07-23T00:41:16.232Z,87.70
2018-07-23T00:43:44.282Z,88.00
2018-07-23T00:46:12.321Z,88.00
2018-07-23T00:48:40.369Z,88.40
2018-07-23T00:51:08.396Z,88.70
2018-07-23T00:56:04.392Z,89.10
2018-07-23T00:58:32.432Z,89.60
2018-07-23T01:01:00.533Z,89.40
2018-07-23T01:03:28.561Z,89.40
2018-07-23T01:05:56.656Z,89.60
2018-07-23T01:10:52.588Z,89.40
2018-07-23T01:13:20.632Z,89.10
2018-07-23T01:15:48.669Z,88.90
2018-07-23T01:18:16.725Z,88.90
2018-07-23T01:20:44.781Z,89.10
2018-07-23T01:23:12.883Z,89.70
2018-07-23T01:25:40.909Z,90.00
2018-07-23T01:28:08.964Z,90.00
2018-07-23T01:30:37.084Z,90.10
2018-07-23T01:33:05.124Z,90.10
2018-07-23T01:35:33.236Z,90.10
2018-07-23T01:38:01.297Z,90.20
2018-07-23T01:40:29.348Z,90.20
2018-07-23T01:42:57.423Z,90.20
2018-07-23T01:45:25.460Z,90.30
2018-07-23T01:47:53.520Z,90.30
2018-07-23T01:50:21.553Z,90.50
2018-07-23T01:52:49.600Z,90.40
2018-07-23T01:55:17.697Z,90.40
2018-07-23T01:57:45.712Z,90.50
2018-07-23T02:00:13.813Z,90.70
2018-07-23T02:05:09.801Z,90.80
2018-07-23T02:07:37.952Z,91.10
2018-07-23T02:12:34.832Z,91.20
2018-07-23T02:15:02.844Z,91.20
2018-07-23T02:17:30.880Z,91.00
2018-07-23T02:19:58.926Z,90.90
2018-07-23T02:22:26.965Z,90.80
2018-07-23T02:24:55.025Z,90.60
2018-07-23T02:27:23.072Z,90.50
2018-07-23T02:29:51.149Z,90.60
2018-07-23T02:34:47.352Z,90.80
2018-07-23T02:37:15.402Z,90.80
2018-07-23T02:39:43.800Z,90.90
2018-07-23T02:42:11.834Z,91.00
2018-07-23T02:44:39.881Z,91.10
2018-07-23T02:47:08.681Z,91.40
2018-07-23T02:49:36.773Z,91.60
2018-07-23T02:52:04.828Z,91.80
2018-07-23T02:54:33.576Z,91.90
2018-07-23T02:57:01.601Z,91.90
2018-07-23T02:59:29.915Z,91.80
2018-07-23T03:01:57.929Z,91.80
2018-07-23T03:04:25.984Z,91.60
2018-07-23T03:06:54.082Z,91.50
2018-07-23T03:09:22.097Z,91.50
2018-07-23T03:11:50.140Z,91.50
2018-07-23T03:14:18.184Z,91.80
2018-07-23T03:16:46.239Z,91.60
2018-07-23T03:19:14.284Z,91.50
2018-07-23T03:21:42.389Z,91.60
2018-07-23T03:24:10.411Z,91.60
2018-07-23T03:26:38.437Z,91.60
2018-07-23T03:29:06.493Z,91.50
2018-07-23T03:31:34.549Z,91.60
2018-07-23T03:34:02.615Z,91.60
2018-07-23T03:36:30.640Z,91.60
2018-07-23T03:38:58.700Z,91.50
2018-07-23T03:43:54.598Z,91.70
2018-07-23T03:46:22.712Z,91.90
2018-07-23T03:51:19.279Z,92.30
2018-07-23T03:53:47.316Z,92.30
2018-07-23T03:56:15.379Z,92.30
2018-07-23T03:58:43.413Z,92.60
2018-07-23T04:03:39.402Z,92.80
2018-07-23T04:06:07.464Z,92.90
2018-07-23T04:08:35.744Z,92.90
2018-07-23T04:11:03.808Z,93.10
2018-07-23T04:13:31.876Z,93.10
2018-07-23T04:15:59.961Z,93.10
2018-07-23T04:20:55.847Z,93.20
2018-07-23T04:23:23.905Z,93.10
2018-07-23T04:25:51.989Z,93.20
2018-07-23T04:28:20.029Z,93.20
2018-07-23T04:30:48.133Z,93.10
2018-07-23T04:33:16.274Z,93.40
2018-07-23T04:35:44.312Z,92.80
2018-07-23T04:38:12.425Z,92.60
2018-07-23T04:40:40.438Z,92.40
2018-07-23T04:43:08.496Z,92.20
2018-07-23T04:45:36.544Z,92.00
2018-07-23T04:48:04.672Z,91.80
2018-07-23T04:50:32.787Z,91.90
2018-07-23T04:53:00.788Z,91.90
2018-07-23T04:57:56.787Z,91.80
2018-07-23T05:00:24.853Z,91.90
2018-07-23T05:02:52.881Z,92.00
2018-07-23T05:07:48.880Z,92.20
2018-07-23T05:10:16.948Z,92.20
2018-07-23T05:12:44.973Z,92.40
2018-07-23T05:15:13.053Z,92.50
2018-07-23T05:17:41.109Z,92.40
2018-07-23T05:20:09.156Z,92.20
2018-07-23T05:22:37.204Z,92.20
2018-07-23T05:25:05.284Z,92.10
2018-07-23T05:30:02.029Z,92.00
2018-07-23T05:34:58.092Z,91.70
2018-07-23T05:39:54.006Z,91.90
2018-07-23T05:42:22.064Z,91.50
2018-07-23T05:44:50.208Z,91.60
2018-07-23T05:47:18.257Z,91.40
2018-07-23T05:49:46.322Z,91.10
2018-07-23T05:52:14.397Z,90.70
2018-07-23T05:54:42.680Z,90.60
2018-07-23T05:57:10.760Z,90.60
2018-07-23T05:59:38.824Z,90.60
2018-07-23T06:02:06.919Z,90.70
2018-07-23T06:07:02.999Z,90.50
2018-07-23T06:09:30.936Z,90.50
2018-07-23T06:11:58.984Z,90.30
2018-07-23T06:14:27.040Z,90.30
2018-07-23T06:16:55.120Z,90.00
2018-07-23T06:19:23.153Z,88.60
2018-07-23T06:21:51.200Z,88.00
2018-07-23T06:24:19.264Z,86.80
2018-07-23T06:26:47.336Z,85.80
2018-07-23T06:29:15.400Z,85.30
2018-07-23T06:31:43.492Z,85.10
2018-07-23T06:34:11.541Z,84.90
2018-07-23T06:36:39.587Z,84.00
2018-07-23T06:41:36.549Z,82.20
2018-07-23T06:44:04.601Z,82.00
2018-07-23T06:46:32.712Z,81.50
2018-07-23T06:49:00.849Z,80.10
2018-07-23T06:51:28.877Z,79.10
2018-07-23T06:53:56.991Z,78.20
2018-07-23T06:56:24.997Z,78.50
2018-07-23T06:58:53.384Z,78.60
2018-07-23T07:01:21.485Z,78.00
2018-07-23T07:03:49.478Z,77.50
2018-07-23T07:06:17.955Z,77.30
2018-07-23T07:08:45.945Z,77.30
2018-07-23T07:11:14.173Z,76.90
2018-07-23T07:13:42.251Z,75.80
2018-07-23T07:16:10.270Z,74.40
2018-07-23T07:18:38.592Z,73.20
2018-07-23T07:21:07.128Z,71.60
2018-07-23T07:23:35.176Z,71.10
2018-07-23T07:26:03.236Z,70.30
2018-07-23T07:28:31.308Z,68.00
2018-07-23T07:30:59.373Z,68.30
2018-07-23T07:33:27.486Z,66.90
2018-07-23T07:35:55.531Z,66.50
2018-07-23T07:38:23.639Z,65.60
2018-07-23T07:40:51.666Z,64.40
2018-07-23T07:43:19.712Z,63.10
2018-07-23T07:45:47.756Z,60.30
2018-07-23T07:48:15.824Z,59.20
2018-07-23T07:50:43.964Z,57.50
2018-07-23T07:53:12.077Z,55.80
2018-07-23T07:55:40.125Z,53.20
2018-07-23T07:58:08.281Z,50.80
2018-07-23T08:00:37.010Z,51.20
2018-07-23T08:03:05.043Z,49.90
2018-07-23T08:05:33.144Z,48.90
2018-07-23T08:08:01.200Z,47.00
2018-07-23T08:10:29.244Z,46.40
2018-07-23T08:12:57.381Z,45.20
2018-07-23T08:15:25.428Z,44.70
2018-07-23T08:17:53.572Z,45.30
2018-07-23T08:20:21.592Z,45.20
2018-07-23T08:22:49.653Z,44.40
2018-07-23T08:25:17.710Z,44.30
2018-07-23T08:27:45.829Z,44.20
2018-07-23T08:30:13.860Z,44.40
2018-07-23T08:32:41.962Z,44.40
2018-07-23T08:35:10.017Z,42.70
2018-07-23T08:37:38.057Z,43.00
2018-07-23T08:40:06.448Z,43.00
2018-07-23T08:42:34.624Z,42.70
2018-07-23T08:45:02.839Z,41.90
2018-07-23T08:47:30.812Z,41.80
2018-07-23T08:49:58.848Z,42.00
2018-07-23T08:52:26.908Z,41.50
2018-07-23T08:54:54.960Z,41.20
2018-07-23T08:57:23.113Z,41.00
2018-07-23T08:59:51.088Z,40.50
2018-07-23T09:02:19.168Z,41.00
2018-07-23T09:04:47.184Z,40.80
2018-07-23T09:07:15.240Z,40.90
2018-07-23T09:09:43.269Z,41.00
2018-07-23T09:12:11.336Z,40.90
2018-07-23T09:14:39.433Z,40.40
2018-07-23T09:17:07.528Z,40.40
2018-07-23T09:19:36.165Z,40.10
2018-07-23T09:22:04.523Z,40.00
2018-07-23T09:24:32.706Z,40.10
2018-07-23T09:27:00.864Z,39.90
2018-07-23T09:29:28.957Z,40.50
2018-07-23T09:31:57.006Z,40.40
2018-07-23T09:36:52.941Z,39.50
2018-07-23T09:39:20.997Z,39.40
2018-07-23T09:41:49.056Z,39.30
2018-07-23T09:44:17.113Z,39.70
2018-07-23T09:46:45.169Z,38.80
2018-07-23T09:49:13.220Z,38.10
2018-07-23T09:51:41.289Z,37.40
2018-07-23T09:54:09.331Z,37.10
2018-07-23T09:56:37.372Z,37.00
2018-07-23T09:59:05.660Z,36.70
2018-07-23T10:01:33.769Z,36.50
2018-07-23T10:04:01.818Z,35.60
2018-07-23T10:06:29.873Z,35.60
2018-07-23T10:08:57.929Z,36.20
2018-07-23T10:13:53.959Z,35.50
2018-07-23T10:16:22.833Z,35.30
2018-07-23T10:18:50.950Z,35.30
2018-07-23T10:21:19.012Z,34.30
2018-07-23T10:26:14.924Z,35.60
2018-07-23T10:28:42.996Z,34.90
2018-07-23T10:31:11.056Z,33.90
2018-07-23T10:33:39.120Z,35.10
2018-07-23T10:36:07.325Z,34.90
2018-07-23T10:38:35.369Z,35.00
2018-07-23T10:41:03.433Z,35.20
2018-07-23T10:43:31.477Z,35.20
2018-07-23T10:45:59.737Z,34.60
2018-07-23T10:48:27.768Z,35.20
2018-07-23T10:53:24.188Z,34.80
2018-07-23T10:55:52.248Z,34.80
2018-07-23T10:58:20.341Z,34.70
2018-07-23T11:00:48.416Z,34.30
2018-07-23T11:03:16.471Z,34.70
2018-07-23T11:05:44.608Z,34.90
2018-07-23T11:08:12.668Z,34.20
2018-07-23T11:10:40.753Z,34.90
2018-07-23T11:13:08.810Z,35.20
2018-07-23T11:15:36.908Z,34.00
2018-07-23T11:18:05.014Z,34.00
2018-07-23T11:20:33.056Z,33.10
2018-07-23T11:23:01.125Z,32.80
2018-07-23T11:25:40.666Z,32.80
2018-07-23T11:27:57.344Z,33.10
2018-07-23T11:30:25.376Z,33.30
2018-07-23T11:32:53.433Z,31.70
2018-07-23T11:35:21.461Z,31.60
2018-07-23T11:37:49.517Z,32.40
2018-07-23T11:40:17.554Z,32.60
2018-07-23T11:42:45.648Z,32.70
2018-07-23T11:45:13.671Z,32.20
2018-07-23T11:47:41.718Z,30.80
2018-07-23T11:50:09.933Z,31.50
2018-07-23T11:52:38.312Z,31.10
2018-07-23T11:55:06.368Z,32.10
2018-07-23T11:57:34.420Z,32.30
2018-07-23T12:00:02.485Z,32.70
2018-07-23T12:02:30.516Z,33.50
2018-07-23T12:04:58.636Z,34.30
2018-07-23T12:07:26.707Z,34.30
2018-07-23T12:09:54.769Z,34.10
2018-07-23T12:12:22.831Z,34.30
2018-07-23T12:14:50.868Z,33.50
2018-07-23T12:17:19.001Z,33.30
2018-07-23T12:19:47.172Z,33.60
2018-07-23T12:22:15.654Z,33.80
2018-07-23T12:24:43.833Z,33.90
2018-07-23T12:27:11.872Z,34.00
2018-07-23T12:29:39.949Z,34.30
2018-07-23T12:32:08.185Z,34.50
2018-07-23T12:37:04.099Z,35.20
2018-07-23T12:39:32.245Z,35.60
2018-07-23T12:42:00.245Z,35.90
2018-07-23T12:44:28.273Z,36.10
2018-07-23T12:46:56.356Z,36.30
2018-07-23T12:49:24.421Z,36.70
2018-07-23T12:51:52.469Z,35.50
2018-07-23T12:54:20.533Z,36.00
2018-07-23T12:56:48.662Z,36.40
2018-07-23T12:59:16.741Z,36.20
2018-07-23T13:04:12.608Z,36.50
2018-07-23T13:20:15.692Z,36.50
2018-07-23T13:22:43.720Z,36.60
2018-07-23T13:25:11.796Z,37.40
2018-07-23T13:27:39.881Z,37.50
2018-07-23T13:30:07.948Z,37.50
2018-07-23T13:32:36.005Z,37.70
2018-07-23T13:35:04.265Z,37.90
2018-07-23T13:37:32.328Z,38.00
2018-07-23T13:40:00.388Z,37.80
2018-07-23T13:42:28.512Z,37.90
2018-07-23T13:44:56.581Z,37.90
2018-07-23T13:47:24.860Z,37.60
2018-07-23T13:49:52.922Z,38.60
2018-07-23T13:52:21.004Z,38.40
2018-07-23T13:54:49.052Z,38.40
2018-07-23T13:57:17.168Z,38.60
2018-07-23T13:59:45.213Z,38.90
2018-07-23T14:02:13.417Z,39.00
2018-07-23T14:04:41.613Z,39.20
2018-07-23T14:07:18.472Z,39.30
2018-07-23T14:09:46.632Z,39.40
2018-07-23T14:12:14.715Z,40.20
2018-07-23T14:14:42.757Z,39.70
2018-07-23T14:17:10.824Z,39.80
2018-07-23T14:19:38.880Z,39.60
2018-07-23T14:22:07.089Z,39.60
2018-07-23T14:24:35.120Z,39.80
2018-07-23T14:27:03.189Z,39.90
2018-07-23T14:29:31.241Z,39.90
2018-07-23T14:31:59.271Z,40.60
2018-07-23T14:34:27.357Z,40.50
2018-07-23T14:36:55.396Z,40.70
2018-07-23T14:41:51.293Z,41.00
2018-07-23T14:44:19.381Z,41.10
2018-07-23T14:46:47.401Z,41.00
2018-07-23T14:49:15.482Z,41.20
2018-07-23T14:51:43.521Z,41.90
2018-07-23T14:54:11.578Z,41.40
2018-07-23T14:56:39.648Z,41.40
2018-07-23T14:59:07.684Z,41.80
2018-07-23T15:01:35.729Z,41.90
2018-07-23T15:04:03.809Z,41.90
2018-07-23T15:06:31.845Z,41.90
2018-07-23T15:08:59.913Z,42.20
2018-07-23T15:11:27.957Z,42.20
2018-07-23T15:13:56.033Z,42.10
2018-07-23T15:16:24.085Z,42.00
2018-07-23T15:18:52.188Z,42.40
2018-07-23T15:21:20.248Z,41.70
2018-07-23T15:23:48.292Z,41.80
2018-07-23T15:26:16.346Z,42.20
2018-07-23T15:28:44.412Z,43.00
2018-07-23T15:31:12.486Z,42.40
2018-07-23T15:33:40.561Z,42.70
2018-07-23T15:36:08.628Z,43.00
2018-07-23T15:38:36.734Z,43.80
2018-07-23T15:41:04.740Z,43.30
2018-07-23T15:43:32.817Z,43.50
2018-07-23T15:46:01.021Z,43.40
2018-07-23T15:48:28.923Z,43.20
2018-07-23T15:50:57.004Z,43.50
2018-07-23T15:53:25.060Z,43.50
2018-07-23T15:55:53.108Z,43.70
2018-07-23T15:58:21.168Z,44.00
2018-07-23T16:00:49.274Z,44.20
2018-07-23T16:03:17.350Z,44.20
2018-07-23T16:05:45.408Z,44.30
2018-07-23T16:08:13.448Z,44.50
2018-07-23T16:10:41.518Z,44.60
2018-07-23T16:13:09.540Z,44.70
2018-07-23T16:15:37.597Z,44.80
2018-07-23T16:18:05.660Z,44.70
2018-07-23T16:20:33.713Z,44.90
2018-07-23T16:23:01.744Z,45.20
2018-07-23T16:25:29.788Z,45.40
2018-07-23T16:27:57.850Z,45.70
2018-07-23T16:30:25.921Z,45.70
2018-07-23T16:32:53.942Z,45.80
2018-07-23T16:35:21.987Z,45.50
2018-07-23T16:37:50.025Z,45.30
2018-07-23T16:40:18.064Z,45.70
2018-07-23T16:42:46.125Z,46.10
2018-07-23T16:45:14.894Z,46.10
2018-07-23T16:47:42.931Z,46.00
2018-07-23T16:50:11.087Z,46.30
2018-07-23T16:52:39.161Z,46.30
2018-07-23T16:55:07.188Z,46.50
2018-07-23T16:57:35.232Z,46.50
2018-07-23T17:00:03.396Z,46.30
2018-07-23T17:02:31.364Z,46.50
2018-07-23T17:04:59.390Z,46.70
2018-07-23T17:07:27.504Z,46.60
2018-07-23T17:09:55.551Z,46.80
2018-07-23T17:12:23.627Z,47.00
2018-07-23T17:14:51.664Z,46.70
2018-07-23T17:17:19.716Z,46.60
2018-07-23T17:19:47.756Z,47.30
2018-07-23T17:22:15.827Z,46.90
2018-07-23T17:24:44.098Z,46.90
2018-07-23T17:27:12.156Z,47.00
2018-07-23T17:29:40.198Z,47.10
2018-07-23T17:32:08.264Z,47.30
2018-07-23T17:34:36.311Z,47.30
2018-07-23T17:37:04.460Z,47.20
2018-07-23T17:42:00.348Z,47.80
2018-07-23T17:44:28.468Z,47.90
2018-07-23T17:46:56.497Z,47.80
2018-07-23T17:49:24.525Z,47.50
2018-07-23T17:51:52.594Z,47.00
2018-07-23T17:54:20.621Z,47.20
2018-07-23T17:56:48.658Z,47.60
2018-07-23T17:59:16.708Z,47.30
2018-07-23T18:01:44.744Z,47.20
2018-07-23T18:04:12.805Z,47.30
2018-07-23T18:06:40.881Z,46.70
2018-07-23T18:11:38.521Z,47.30
2018-07-23T18:14:06.599Z,47.90
2018-07-23T18:16:34.663Z,47.70
2018-07-23T18:19:02.948Z,47.60
2018-07-23T18:21:30.989Z,48.00
2018-07-23T18:23:59.037Z,48.50
2018-07-23T18:26:27.066Z,48.50
2018-07-23T18:28:55.113Z,48.60
2018-07-23T18:31:23.146Z,49.00
2018-07-23T18:33:51.209Z,48.90
2018-07-23T18:36:19.419Z,48.70
2018-07-23T18:38:47.547Z,48.50
2018-07-23T18:41:15.892Z,49.60
2018-07-23T18:43:43.945Z,49.70
2018-07-23T18:46:11.988Z,49.80
2018-07-23T18:49:50.279Z,49.20
2018-07-23T18:52:18.941Z,49.50
2018-07-23T18:54:48.272Z,49.60
2018-07-23T18:57:16.332Z,50.40
2018-07-23T18:59:44.407Z,50.10
2018-07-23T19:02:13.780Z,50.40
2018-07-23T19:04:42.520Z,50.50
2018-07-23T19:07:10.630Z,51.30
2018-07-23T19:09:38.680Z,51.50
2018-07-23T19:12:07.203Z,51.70
2018-07-23T19:14:35.310Z,52.00
2018-07-23T19:17:04.428Z,54.00
2018-07-23T19:19:32.485Z,53.40
2018-07-23T19:22:00.560Z,54.10
2018-07-23T19:24:28.612Z,54.20
2018-07-23T19:26:57.848Z,54.80
2018-07-23T19:29:25.913Z,55.40
2018-07-23T19:31:54.016Z,55.60
2018-07-23T19:34:22.072Z,55.80
2018-07-23T19:36:50.224Z,57.60
2018-07-23T19:39:19.488Z,58.20
2018-07-23T19:41:47.559Z,57.90
2018-07-23T19:44:15.624Z,58.40
2018-07-23T19:46:43.677Z,58.20
2018-07-23T19:49:11.734Z,58.80
2018-07-23T19:51:39.849Z,59.30
2018-07-23T19:54:08.496Z,60.00
2018-07-23T19:56:36.556Z,59.70
2018-07-23T19:59:04.628Z,60.40
2018-07-23T20:01:32.869Z,60.50
2018-07-23T20:04:01.041Z,60.90
2018-07-23T20:06:29.597Z,61.50
2018-07-23T20:08:58.748Z,62.00
2018-07-23T20:11:27.545Z,61.80
2018-07-23T20:13:55.612Z,62.60
2018-07-23T20:16:23.653Z,63.20
2018-07-23T20:18:51.756Z,62.90
2018-07-23T20:21:19.801Z,63.00
2018-07-23T20:23:47.864Z,64.00
2018-07-23T20:26:15.900Z,63.60
2018-07-23T20:28:43.980Z,63.90
2018-07-23T20:31:12.117Z,63.80
2018-07-23T20:33:40.185Z,63.80
2018-07-23T20:36:08.571Z,64.00
2018-07-23T20:38:36.869Z,63.60
2018-07-23T20:41:04.960Z,64.10
2018-07-23T20:43:33.714Z,64.70
2018-07-23T20:46:02.145Z,65.00
2018-07-23T20:48:30.176Z,65.00
2018-07-23T20:50:58.901Z,65.30
2018-07-23T20:53:26.965Z,65.00
2018-07-23T20:55:56.779Z,65.90
2018-07-23T20:58:25.985Z,66.30
2018-07-23T21:00:54.051Z,66.80
2018-07-23T21:03:22.072Z,66.80
2018-07-23T21:05:51.264Z,67.00
2018-07-23T21:08:19.328Z,67.20
2018-07-23T21:10:47.397Z,67.40
2018-07-23T21:13:16.964Z,67.60
2018-07-23T21:15:45.589Z,67.80
2018-07-23T21:18:13.595Z,68.10
2018-07-23T21:20:42.112Z,68.60
2018-07-23T21:23:10.869Z,68.60
2018-07-23T21:25:38.979Z,67.90
2018-07-23T21:28:08.258Z,68.20
2018-07-23T21:30:37.307Z,68.20
2018-07-23T21:33:06.857Z,68.10
2018-07-23T21:35:35.073Z,68.00
2018-07-23T21:38:03.188Z,67.90
2018-07-23T21:40:31.229Z,68.20
2018-07-23T21:42:59.333Z,68.10
2018-07-23T21:45:27.473Z,68.30
2018-07-23T21:48:00.027Z,68.40
2018-07-23T21:50:28.212Z,68.30
2018-07-23T21:52:56.312Z,68.40
2018-07-23T21:55:24.468Z,68.10
2018-07-23T22:00:20.381Z,68.30
2018-07-23T22:02:48.464Z,68.40
2018-07-23T22:05:16.551Z,68.60
2018-07-23T22:07:44.585Z,68.80
2018-07-23T22:10:12.653Z,69.10
2018-07-23T22:12:40.740Z,70.00
2018-07-23T22:15:10.279Z,69.30
2018-07-23T22:17:38.368Z,69.50
2018-07-23T22:20:07.145Z,69.50
2018-07-23T22:22:35.227Z,69.40
2018-07-23T22:25:03.484Z,69.70
2018-07-23T22:27:31.700Z,69.80
2018-07-23T22:32:27.644Z,70.20
2018-07-23T22:34:55.749Z,70.30
2018-07-23T22:37:23.820Z,71.20
2018-07-23T22:39:51.884Z,70.90
2018-07-23T22:42:19.947Z,70.90
2018-07-23T22:44:50.074Z,71.50
2018-07-23T22:47:18.285Z,71.50
2018-07-23T22:49:46.332Z,71.50
2018-07-23T22:54:42.232Z,72.10
2018-07-23T22:57:10.493Z,71.70
2018-07-23T22:59:38.570Z,71.90
2018-07-23T23:02:07.176Z,71.80
2018-07-23T23:04:35.248Z,71.80
2018-07-23T23:07:03.332Z,71.30
2018-07-23T23:09:31.380Z,71.00
2018-07-23T23:11:59.450Z,70.70
2018-07-23T23:14:27.516Z,70.50
2018-07-23T23:16:55.636Z,70.50
2018-07-23T23:19:23.692Z,70.60
2018-07-23T23:21:51.865Z,71.10
2018-07-23T23:24:19.928Z,71.50
2018-07-23T23:26:47.976Z,71.80
2018-07-23T23:29:16.068Z,71.80
2018-07-23T23:31:44.117Z,71.80
2018-07-23T23:34:12.220Z,71.70
2018-07-23T23:41:36.096Z,71.80
2018-07-23T23:44:04.184Z,71.20
2018-07-23T23:46:35.181Z,71.30
2018-07-23T23:49:03.253Z,71.00
2018-07-23T23:51:31.464Z,71.30
2018-07-23T23:53:59.872Z,71.60
2018-07-23T23:56:27.941Z,71.80
2018-07-23T23:58:56.181Z,72.00
